Aviation Digital Data Service (ADDS)

Output produced by TAFs form (0232 UTC 05 March 2015)
found at http://www.aviationweather.gov/adds/tafs/
 
KPOU 042332Z 0500/0524 VRB03KT P6SM VCSH OVC060 
     FM050300 33004KT 4SM -RASN OVC030 
     TEMPO 0504/0506 2SM -SN BR OVC009 
     FM050600 34005KT 2SM -SN OVC008 
     FM051200 34008KT 5SM -SN SCT012 OVC025 
     FM051500 33008KT P6SM VCSH SCT030 OVC060 
     FM051800 32007KT P6SM OVC100